sensor_id;sensor_type;location;lat;lon;timestamp;pressure;altitude;pressure_sealevel;temperature;humidity
47726;BME280;33483;48.294;16.388;2023-01-30T00:00:58;100115.00;;;-1.78;100.00
47726;BME280;33483;48.294;16.388;2023-01-30T00:03:26;100110.75;;;-1.79;100.00
47726;BME280;33483;48.294;16.388;2023-01-30T00:05:53;100112.16;;;-1.87;100.00
47726;BME280;33483;48.294;16.388;2023-01-30T00:08:20;100102.91;;;-1.90;100.00
47726;BME280;33483;48.294;16.388;2023-01-30T00:10:48;100108.56;;;-1.84;100.00
47726;BME280;33483;48.294;16.388;2023-01-30T00:13:15;100096.97;;;-1.85;100.00
47726;BME280;33483;48.294;16.388;2023-01-30T00:15:42;100099.25;;;-1.83;100.00
47726;BME280;33483;48.294;16.388;2023-01-30T00:18:09;100091.72;;;-1.92;100.00
47726;BME280;33483;48.294;16.388;2023-01-30T00:20:37;100088.66;;;-1.94;100.00
47726;BME280;33483;48.294;16.388;2023-01-30T00:23:06;100081.44;;;-2.00;100.00
47726;BME280;33483;48.294;16.388;2023-01-30T00:25:36;100079.84;;;-1.98;100.00
47726;BME280;33483;48.294;16.388;2023-01-30T00:28:03;100080.84;;;-1.92;100.00
47726;BME280;33483;48.294;16.388;2023-01-30T00:30:30;100079.34;;;-1.80;100.00
47726;BME280;33483;48.294;16.388;2023-01-30T00:32:58;100072.63;;;-1.88;100.00
47726;BME280;33483;48.294;16.388;2023-01-30T00:35:25;100060.97;;;-1.89;100.00
47726;BME280;33483;48.294;16.388;2023-01-30T00:37:55;100068.34;;;-1.89;100.00
47726;BME280;33483;48.294;16.388;2023-01-30T00:40:23;100057.63;;;-1.80;100.00
47726;BME280;33483;48.294;16.388;2023-01-30T00:42:52;100055.19;;;-1.62;100.00
47726;BME280;33483;48.294;16.388;2023-01-30T00:45:40;100043.09;;;-1.61;100.00
47726;BME280;33483;48.294;16.388;2023-01-30T00:48:28;100043.13;;;-1.36;100.00
47726;BME280;33483;48.294;16.388;2023-01-30T00:50:55;100049.84;;;-1.41;100.00
47726;BME280;33483;48.294;16.388;2023-01-30T00:53:22;100045.84;;;-1.49;100.00
47726;BME280;33483;48.294;16.388;2023-01-30T00:55:50;100038.66;;;-1.55;100.00
47726;BME280;33483;48.294;16.388;2023-01-30T00:58:17;100038.88;;;-1.37;100.00
47726;BME280;33483;48.294;16.388;2023-01-30T01:00:45;100040.41;;;-1.49;100.00
47726;BME280;33483;48.294;16.388;2023-01-30T01:03:12;100024.75;;;-1.57;100.00
47726;BME280;33483;48.294;16.388;2023-01-30T01:05:40;100020.72;;;-1.53;100.00
47726;BME280;33483;48.294;16.388;2023-01-30T01:08:08;100012.47;;;-1.49;100.00
47726;BME280;33483;48.294;16.388;2023-01-30T01:10:36;100006.38;;;-1.41;100.00
47726;BME280;33483;48.294;16.388;2023-01-30T01:13:06;100005.94;;;-1.39;100.00
47726;BME280;33483;48.294;16.388;2023-01-30T01:15:37;99997.56;;;-1.32;100.00
47726;BME280;33483;48.294;16.388;2023-01-30T01:18:04;99992.88;;;-1.19;100.00
47726;BME280;33483;48.294;16.388;2023-01-30T01:20:32;99990.16;;;-1.19;100.00
47726;BME280;33483;48.294;16.388;2023-01-30T01:22:59;99985.78;;;-1.04;100.00
47726;BME280;33483;48.294;16.388;2023-01-30T01:25:26;99986.31;;;-0.96;100.00
47726;BME280;33483;48.294;16.388;2023-01-30T01:27:55;99985.44;;;-0.93;100.00
47726;BME280;33483;48.294;16.388;2023-01-30T01:30:25;99983.81;;;-0.91;100.00
47726;BME280;33483;48.294;16.388;2023-01-30T01:32:52;99983.69;;;-0.87;100.00
47726;BME280;33483;48.294;16.388;2023-01-30T01:35:19;99982.03;;;-0.85;100.00
47726;BME280;33483;48.294;16.388;2023-01-30T01:37:46;99984.75;;;-0.85;100.00
47726;BME280;33483;48.294;16.388;2023-01-30T01:40:17;99974.00;;;-0.88;100.00
47726;BME280;33483;48.294;16.388;2023-01-30T01:43:16;99971.38;;;-0.79;100.00
47726;BME280;33483;48.294;16.388;2023-01-30T01:45:47;99963.75;;;-0.84;100.00
47726;BME280;33483;48.294;16.388;2023-01-30T01:49:00;99953.66;;;-0.84;100.00
47726;BME280;33483;48.294;16.388;2023-01-30T01:51:09;99947.66;;;-0.79;100.00
47726;BME280;33483;48.294;16.388;2023-01-30T01:53:39;99937.81;;;-0.76;100.00
47726;BME280;33483;48.294;16.388;2023-01-30T01:56:08;99947.84;;;-0.73;100.00
47726;BME280;33483;48.294;16.388;2023-01-30T01:58:38;99935.88;;;-0.76;100.00
47726;BME280;33483;48.294;16.388;2023-01-30T02:01:08;99935.53;;;-0.78;100.00
47726;BME280;33483;48.294;16.388;2023-01-30T02:03:36;99930.75;;;-0.74;100.00
47726;BME280;33483;48.294;16.388;2023-01-30T02:06:08;99928.47;;;-0.75;100.00
47726;BME280;33483;48.294;16.388;2023-01-30T02:08:37;99929.78;;;-0.80;100.00
47726;BME280;33483;48.294;16.388;2023-01-30T02:13:47;99922.91;;;-0.72;100.00
47726;BME280;33483;48.294;16.388;2023-01-30T02:16:20;99918.56;;;-0.82;100.00
47726;BME280;33483;48.294;16.388;2023-01-30T02:18:47;99912.50;;;-0.86;100.00
47726;BME280;33483;48.294;16.388;2023-01-30T02:24:09;99917.31;;;-0.90;100.00
47726;BME280;33483;48.294;16.388;2023-01-30T02:42:23;99886.69;;;-1.03;100.00
47726;BME280;33483;48.294;16.388;2023-01-30T02:45:21;99875.16;;;-1.07;100.00
47726;BME280;33483;48.294;16.388;2023-01-30T02:47:54;99863.63;;;-1.11;100.00
47726;BME280;33483;48.294;16.388;2023-01-30T02:50:26;99873.63;;;-1.08;100.00
47726;BME280;33483;48.294;16.388;2023-01-30T02:52:56;99867.69;;;-1.16;100.00
47726;BME280;33483;48.294;16.388;2023-01-30T02:55:25;99872.34;;;-1.16;100.00
47726;BME280;33483;48.294;16.388;2023-01-30T02:57:52;99878.34;;;-1.21;100.00
47726;BME280;33483;48.294;16.388;2023-01-30T03:00:28;99871.47;;;-1.13;100.00
47726;BME280;33483;48.294;16.388;2023-01-30T03:05:40;99863.78;;;-0.93;100.00
47726;BME280;33483;48.294;16.388;2023-01-30T03:11:06;99850.50;;;-0.91;100.00
47726;BME280;33483;48.294;16.388;2023-01-30T03:13:46;99852.25;;;-0.97;100.00
47726;BME280;33483;48.294;16.388;2023-01-30T03:16:17;99844.44;;;-0.95;100.00
47726;BME280;33483;48.294;16.388;2023-01-30T03:18:49;99850.06;;;-0.89;100.00
47726;BME280;33483;48.294;16.388;2023-01-30T03:21:16;99857.91;;;-0.91;100.00
47726;BME280;33483;48.294;16.388;2023-01-30T03:23:44;99847.16;;;-0.95;100.00
47726;BME280;33483;48.294;16.388;2023-01-30T03:26:17;99844.94;;;-0.87;100.00
47726;BME280;33483;48.294;16.388;2023-01-30T03:28:47;99843.88;;;-0.68;100.00
47726;BME280;33483;48.294;16.388;2023-01-30T03:31:14;99838.31;;;-0.65;100.00
47726;BME280;33483;48.294;16.388;2023-01-30T03:33:42;99837.41;;;-0.62;100.00
47726;BME280;33483;48.294;16.388;2023-01-30T03:36:11;99826.78;;;-0.69;100.00
47726;BME280;33483;48.294;16.388;2023-01-30T03:38:39;99810.13;;;-0.71;100.00
47726;BME280;33483;48.294;16.388;2023-01-30T03:41:06;99808.13;;;-0.79;100.00
47726;BME280;33483;48.294;16.388;2023-01-30T03:43:34;99814.66;;;-0.68;100.00
47726;BME280;33483;48.294;16.388;2023-01-30T03:46:04;99827.34;;;-0.74;100.00
47726;BME280;33483;48.294;16.388;2023-01-30T03:48:34;99822.97;;;-0.71;100.00
47726;BME280;33483;48.294;16.388;2023-01-30T03:51:00;99807.97;;;-0.76;100.00
47726;BME280;33483;48.294;16.388;2023-01-30T03:53:28;99813.09;;;-0.78;100.00
47726;BME280;33483;48.294;16.388;2023-01-30T03:55:58;99813.56;;;-0.79;100.00
47726;BME280;33483;48.294;16.388;2023-01-30T03:58:30;99811.28;;;-0.81;100.00
47726;BME280;33483;48.294;16.388;2023-01-30T04:01:05;99818.22;;;-0.80;100.00
47726;BME280;33483;48.294;16.388;2023-01-30T04:03:32;99807.34;;;-0.80;100.00
47726;BME280;33483;48.294;16.388;2023-01-30T04:06:00;99797.09;;;-0.76;100.00
47726;BME280;33483;48.294;16.388;2023-01-30T04:08:33;99806.38;;;-0.64;100.00
47726;BME280;33483;48.294;16.388;2023-01-30T04:11:11;99793.38;;;-0.39;100.00
47726;BME280;33483;48.294;16.388;2023-01-30T04:13:46;99793.69;;;-0.37;100.00
47726;BME280;33483;48.294;16.388;2023-01-30T04:16:21;99803.31;;;-0.45;100.00
47726;BME280;33483;48.294;16.388;2023-01-30T04:19:07;99787.88;;;-0.48;100.00
47726;BME280;33483;48.294;16.388;2023-01-30T04:21:35;99791.78;;;-0.49;100.00
47726;BME280;33483;48.294;16.388;2023-01-30T04:24:03;99790.91;;;-0.46;100.00
47726;BME280;33483;48.294;16.388;2023-01-30T04:26:30;99778.53;;;-0.38;100.00
47726;BME280;33483;48.294;16.388;2023-01-30T04:28:57;99772.66;;;-0.36;100.00
47726;BME280;33483;48.294;16.388;2023-01-30T04:31:26;99764.94;;;-0.38;100.00
47726;BME280;33483;48.294;16.388;2023-01-30T04:34:04;99782.50;;;-0.39;100.00
47726;BME280;33483;48.294;16.388;2023-01-30T04:36:34;99765.84;;;-0.41;100.00
47726;BME280;33483;48.294;16.388;2023-01-30T04:39:03;99766.28;;;-0.42;100.00
47726;BME280;33483;48.294;16.388;2023-01-30T04:41:33;99765.22;;;-0.45;100.00
47726;BME280;33483;48.294;16.388;2023-01-30T04:44:04;99764.16;;;-0.38;100.00
47726;BME280;33483;48.294;16.388;2023-01-30T04:46:48;99768.41;;;-0.37;100.00
47726;BME280;33483;48.294;16.388;2023-01-30T04:49:15;99759.50;;;-0.38;100.00
47726;BME280;33483;48.294;16.388;2023-01-30T04:51:42;99759.97;;;-0.30;100.00
47726;BME280;33483;48.294;16.388;2023-01-30T04:54:10;99754.34;;;-0.36;100.00
47726;BME280;33483;48.294;16.388;2023-01-30T04:56:37;99758.63;;;-0.26;100.00
47726;BME280;33483;48.294;16.388;2023-01-30T04:59:05;99753.31;;;-0.29;100.00
47726;BME280;33483;48.294;16.388;2023-01-30T05:01:37;99742.09;;;-0.31;100.00
47726;BME280;33483;48.294;16.388;2023-01-30T05:04:05;99745.00;;;-0.26;100.00
47726;BME280;33483;48.294;16.388;2023-01-30T05:06:33;99740.97;;;-0.21;100.00
47726;BME280;33483;48.294;16.388;2023-01-30T05:09:01;99743.81;;;-0.16;100.00
47726;BME280;33483;48.294;16.388;2023-01-30T05:11:28;99747.63;;;-0.13;100.00
47726;BME280;33483;48.294;16.388;2023-01-30T05:13:56;99742.03;;;-0.10;100.00
47726;BME280;33483;48.294;16.388;2023-01-30T05:16:23;99745.38;;;-0.06;100.00
47726;BME280;33483;48.294;16.388;2023-01-30T05:18:51;99744.34;;;0.01;100.00
47726;BME280;33483;48.294;16.388;2023-01-30T05:21:24;99744.19;;;0.05;100.00
47726;BME280;33483;48.294;16.388;2023-01-30T05:23:55;99743.72;;;0.06;100.00
47726;BME280;33483;48.294;16.388;2023-01-30T05:26:22;99735.69;;;0.03;100.00
47726;BME280;33483;48.294;16.388;2023-01-30T05:28:50;99739.66;;;0.11;100.00
47726;BME280;33483;48.294;16.388;2023-01-30T05:31:18;99730.25;;;0.03;100.00
47726;BME280;33483;48.294;16.388;2023-01-30T05:33:46;99734.19;;;0.02;100.00
47726;BME280;33483;48.294;16.388;2023-01-30T05:36:14;99722.41;;;0.05;100.00
47726;BME280;33483;48.294;16.388;2023-01-30T05:38:42;99725.56;;;0.03;100.00
47726;BME280;33483;48.294;16.388;2023-01-30T05:41:10;99739.50;;;0.05;100.00
47726;BME280;33483;48.294;16.388;2023-01-30T05:43:37;99743.91;;;0.12;100.00
47726;BME280;33483;48.294;16.388;2023-01-30T05:46:05;99744.81;;;0.09;100.00
47726;BME280;33483;48.294;16.388;2023-01-30T05:48:32;99746.31;;;0.10;100.00
47726;BME280;33483;48.294;16.388;2023-01-30T05:50:59;99753.72;;;0.09;100.00
47726;BME280;33483;48.294;16.388;2023-01-30T05:53:27;99756.28;;;0.03;100.00
47726;BME280;33483;48.294;16.388;2023-01-30T05:55:55;99731.78;;;0.13;100.00
47726;BME280;33483;48.294;16.388;2023-01-30T05:58:23;99744.34;;;0.10;100.00
47726;BME280;33483;48.294;16.388;2023-01-30T06:00:50;99734.47;;;0.03;100.00
47726;BME280;33483;48.294;16.388;2023-01-30T06:03:17;99729.94;;;0.00;100.00
47726;BME280;33483;48.294;16.388;2023-01-30T06:05:44;99720.59;;;0.02;100.00
47726;BME280;33483;48.294;16.388;2023-01-30T06:08:11;99728.41;;;-0.10;100.00
47726;BME280;33483;48.294;16.388;2023-01-30T06:10:38;99734.63;;;-0.09;100.00
47726;BME280;33483;48.294;16.388;2023-01-30T06:13:05;99744.63;;;-0.06;100.00
47726;BME280;33483;48.294;16.388;2023-01-30T06:15:32;99732.22;;;-0.07;100.00
47726;BME280;33483;48.294;16.388;2023-01-30T06:18:00;99734.34;;;-0.02;100.00
47726;BME280;33483;48.294;16.388;2023-01-30T06:20:27;99730.09;;;0.06;100.00
47726;BME280;33483;48.294;16.388;2023-01-30T06:22:54;99724.50;;;0.10;100.00
47726;BME280;33483;48.294;16.388;2023-01-30T06:25:21;99709.53;;;0.14;100.00
47726;BME280;33483;48.294;16.388;2023-01-30T06:27:50;99698.94;;;0.16;100.00
47726;BME280;33483;48.294;16.388;2023-01-30T06:30:18;99734.97;;;0.20;100.00
47726;BME280;33483;48.294;16.388;2023-01-30T06:32:48;99717.13;;;0.19;100.00
47726;BME280;33483;48.294;16.388;2023-01-30T06:35:15;99694.09;;;0.20;100.00
47726;BME280;33483;48.294;16.388;2023-01-30T06:37:43;99683.06;;;0.24;100.00
47726;BME280;33483;48.294;16.388;2023-01-30T06:40:10;99683.50;;;0.22;100.00
47726;BME280;33483;48.294;16.388;2023-01-30T06:42:42;99682.75;;;0.22;100.00
47726;BME280;33483;48.294;16.388;2023-01-30T06:45:09;99694.72;;;0.24;100.00
47726;BME280;33483;48.294;16.388;2023-01-30T06:47:44;99678.81;;;0.23;100.00
47726;BME280;33483;48.294;16.388;2023-01-30T06:50:11;99680.19;;;0.27;100.00
47726;BME280;33483;48.294;16.388;2023-01-30T06:52:40;99676.06;;;0.32;100.00
47726;BME280;33483;48.294;16.388;2023-01-30T06:55:08;99672.75;;;0.37;100.00
47726;BME280;33483;48.294;16.388;2023-01-30T06:57:36;99670.94;;;0.34;100.00
47726;BME280;33483;48.294;16.388;2023-01-30T07:00:03;99667.44;;;0.33;100.00
47726;BME280;33483;48.294;16.388;2023-01-30T07:02:31;99663.22;;;0.41;100.00
47726;BME280;33483;48.294;16.388;2023-01-30T07:05:01;99659.72;;;0.41;100.00
47726;BME280;33483;48.294;16.388;2023-01-30T07:07:29;99667.91;;;0.50;100.00
47726;BME280;33483;48.294;16.388;2023-01-30T07:09:57;99658.34;;;0.54;100.00
47726;BME280;33483;48.294;16.388;2023-01-30T07:12:36;99665.00;;;0.62;100.00
47726;BME280;33483;48.294;16.388;2023-01-30T07:15:04;99667.59;;;0.66;100.00
47726;BME280;33483;48.294;16.388;2023-01-30T07:17:32;99661.97;;;0.69;100.00
47726;BME280;33483;48.294;16.388;2023-01-30T07:20:02;99674.69;;;0.72;100.00
47726;BME280;33483;48.294;16.388;2023-01-30T07:22:29;99673.03;;;0.75;100.00
47726;BME280;33483;48.294;16.388;2023-01-30T07:24:56;99678.44;;;0.84;100.00
47726;BME280;33483;48.294;16.388;2023-01-30T07:27:23;99688.47;;;0.87;100.00
47726;BME280;33483;48.294;16.388;2023-01-30T07:29:52;99700.09;;;0.96;100.00
47726;BME280;33483;48.294;16.388;2023-01-30T07:32:20;99689.63;;;0.95;100.00
47726;BME280;33483;48.294;16.388;2023-01-30T07:34:47;99695.09;;;0.95;100.00
47726;BME280;33483;48.294;16.388;2023-01-30T07:37:14;99681.75;;;0.97;100.00
47726;BME280;33483;48.294;16.388;2023-01-30T07:39:42;99679.19;;;0.93;100.00
47726;BME280;33483;48.294;16.388;2023-01-30T07:42:09;99670.69;;;0.91;100.00
47726;BME280;33483;48.294;16.388;2023-01-30T07:44:36;99672.19;;;1.01;100.00
47726;BME280;33483;48.294;16.388;2023-01-30T07:47:04;99671.56;;;1.06;100.00
47726;BME280;33483;48.294;16.388;2023-01-30T07:49:31;99662.63;;;1.15;100.00
47726;BME280;33483;48.294;16.388;2023-01-30T07:51:58;99643.63;;;1.21;100.00
47726;BME280;33483;48.294;16.388;2023-01-30T07:54:25;99644.03;;;1.28;100.00
47726;BME280;33483;48.294;16.388;2023-01-30T07:56:54;99650.22;;;1.38;100.00
47726;BME280;33483;48.294;16.388;2023-01-30T07:59:24;99648.19;;;1.47;100.00
47726;BME280;33483;48.294;16.388;2023-01-30T08:01:52;99642.09;;;1.52;100.00
47726;BME280;33483;48.294;16.388;2023-01-30T08:04:21;99641.25;;;1.70;100.00
47726;BME280;33483;48.294;16.388;2023-01-30T08:06:48;99637.06;;;1.83;100.00
47726;BME280;33483;48.294;16.388;2023-01-30T08:09:15;99638.34;;;1.97;100.00
47726;BME280;33483;48.294;16.388;2023-01-30T08:11:42;99638.22;;;2.29;100.00
47726;BME280;33483;48.294;16.388;2023-01-30T08:14:09;99644.84;;;3.60;99.37
47726;BME280;33483;48.294;16.388;2023-01-30T08:16:37;99628.50;;;3.51;96.13
47726;BME280;33483;48.294;16.388;2023-01-30T08:19:04;99625.84;;;3.36;93.89
47726;BME280;33483;48.294;16.388;2023-01-30T08:21:32;99614.00;;;3.65;90.02
47726;BME280;33483;48.294;16.388;2023-01-30T08:23:59;99615.59;;;3.91;86.64
47726;BME280;33483;48.294;16.388;2023-01-30T08:26:27;99612.88;;;3.71;85.60
47726;BME280;33483;48.294;16.388;2023-01-30T08:28:54;99601.56;;;3.64;86.28
47726;BME280;33483;48.294;16.388;2023-01-30T08:31:24;99596.53;;;3.42;87.63
47726;BME280;33483;48.294;16.388;2023-01-30T08:33:51;99589.13;;;4.08;87.43
47726;BME280;33483;48.294;16.388;2023-01-30T08:36:18;99589.19;;;4.14;83.72
47726;BME280;33483;48.294;16.388;2023-01-30T08:38:45;99581.00;;;3.94;86.46
47726;BME280;33483;48.294;16.388;2023-01-30T08:41:15;99576.22;;;3.69;86.46
47726;BME280;33483;48.294;16.388;2023-01-30T08:43:44;99565.84;;;3.38;90.43
47726;BME280;33483;48.294;16.388;2023-01-30T08:46:14;99559.91;;;3.39;93.44
47726;BME280;33483;48.294;16.388;2023-01-30T08:48:43;99547.00;;;3.25;94.54
47726;BME280;33483;48.294;16.388;2023-01-30T08:51:16;99556.66;;;3.41;95.32
47726;BME280;33483;48.294;16.388;2023-01-30T08:53:43;99559.28;;;3.70;95.06
47726;BME280;33483;48.294;16.388;2023-01-30T08:56:11;99554.81;;;3.93;92.11
47726;BME280;33483;48.294;16.388;2023-01-30T08:58:40;99538.97;;;4.02;89.94
47726;BME280;33483;48.294;16.388;2023-01-30T09:01:09;99537.34;;;3.90;91.71
47726;BME280;33483;48.294;16.388;2023-01-30T09:03:37;99545.41;;;3.99;90.85
47726;BME280;33483;48.294;16.388;2023-01-30T09:06:04;99545.94;;;4.03;90.41
47726;BME280;33483;48.294;16.388;2023-01-30T09:08:31;99545.53;;;4.10;88.86
47726;BME280;33483;48.294;16.388;2023-01-30T09:10:59;99543.31;;;4.14;87.58
47726;BME280;33483;48.294;16.388;2023-01-30T09:13:27;99530.38;;;4.15;88.81
47726;BME280;33483;48.294;16.388;2023-01-30T09:15:54;99548.97;;;4.05;87.18
47726;BME280;33483;48.294;16.388;2023-01-30T09:18:24;99527.50;;;3.78;88.96
47726;BME280;33483;48.294;16.388;2023-01-30T09:20:51;99523.56;;;3.85;88.94
47726;BME280;33483;48.294;16.388;2023-01-30T09:23:19;99506.81;;;3.57;92.25
47726;BME280;33483;48.294;16.388;2023-01-30T09:25:46;99479.56;;;3.48;93.41
47726;BME280;33483;48.294;16.388;2023-01-30T09:28:13;99489.47;;;3.45;92.95
47726;BME280;33483;48.294;16.388;2023-01-30T09:30:41;99469.03;;;3.41;93.68
47726;BME280;33483;48.294;16.388;2023-01-30T09:33:08;99480.50;;;3.25;92.26
47726;BME280;33483;48.294;16.388;2023-01-30T09:35:35;99466.44;;;3.12;93.22
47726;BME280;33483;48.294;16.388;2023-01-30T09:38:02;99453.75;;;3.14;93.01
47726;BME280;33483;48.294;16.388;2023-01-30T09:40:31;99457.38;;;3.06;93.45
47726;BME280;33483;48.294;16.388;2023-01-30T09:48:02;99433.56;;;3.32;89.78
47726;BME280;33483;48.294;16.388;2023-01-30T09:55:45;99420.25;;;3.45;88.06
47726;BME280;33483;48.294;16.388;2023-01-30T09:58:17;99415.59;;;3.77;85.90
47726;BME280;33483;48.294;16.388;2023-01-30T10:00:45;99418.13;;;4.42;81.74
47726;BME280;33483;48.294;16.388;2023-01-30T10:03:17;99423.75;;;5.07;77.83
47726;BME280;33483;48.294;16.388;2023-01-30T10:13:55;99413.88;;;3.54;86.48
47726;BME280;33483;48.294;16.388;2023-01-30T10:19:08;99404.88;;;3.27;91.67
47726;BME280;33483;48.294;16.388;2023-01-30T10:21:51;99404.06;;;3.21;93.64
47726;BME280;33483;48.294;16.388;2023-01-30T10:26:49;99384.75;;;3.10;96.86
47726;BME280;33483;48.294;16.388;2023-01-30T10:29:32;99397.69;;;3.10;96.33
47726;BME280;33483;48.294;16.388;2023-01-30T10:32:18;99395.28;;;3.17;95.49
47726;BME280;33483;48.294;16.388;2023-01-30T10:34:51;99393.31;;;3.18;97.20
47726;BME280;33483;48.294;16.388;2023-01-30T10:39:49;99390.56;;;3.18;96.71
47726;BME280;33483;48.294;16.388;2023-01-30T10:42:38;99383.03;;;3.13;93.34
47726;BME280;33483;48.294;16.388;2023-01-30T10:45:15;99378.25;;;3.08;95.09
47726;BME280;33483;48.294;16.388;2023-01-30T10:48:28;99389.41;;;3.04;93.70
47726;BME280;33483;48.294;16.388;2023-01-30T10:50:46;99382.91;;;3.02;91.67
47726;BME280;33483;48.294;16.388;2023-01-30T10:55:58;99393.03;;;3.16;93.34
47726;BME280;33483;48.294;16.388;2023-01-30T10:58:35;99387.75;;;3.32;91.66
47726;BME280;33483;48.294;16.388;2023-01-30T11:01:07;99385.16;;;3.49;89.35
47726;BME280;33483;48.294;16.388;2023-01-30T11:06:05;99381.91;;;4.02;84.04
47726;BME280;33483;48.294;16.388;2023-01-30T11:08:34;99378.16;;;4.30;80.47
47726;BME280;33483;48.294;16.388;2023-01-30T11:11:19;99374.25;;;4.42;78.38
47726;BME280;33483;48.294;16.388;2023-01-30T11:13:49;99371.44;;;4.37;76.62
47726;BME280;33483;48.294;16.388;2023-01-30T11:16:15;99351.25;;;4.82;75.29
47726;BME280;33483;48.294;16.388;2023-01-30T11:18:47;99341.59;;;5.09;72.07
47726;BME280;33483;48.294;16.388;2023-01-30T11:21:37;99350.13;;;5.11;72.73
47726;BME280;33483;48.294;16.388;2023-01-30T11:24:15;99332.28;;;4.84;74.02
47726;BME280;33483;48.294;16.388;2023-01-30T11:26:42;99336.50;;;4.74;74.46
47726;BME280;33483;48.294;16.388;2023-01-30T11:31:53;99327.66;;;5.29;72.64
47726;BME280;33483;48.294;16.388;2023-01-30T11:34:21;99298.16;;;5.13;74.04
47726;BME280;33483;48.294;16.388;2023-01-30T11:36:48;99294.97;;;5.36;72.25
47726;BME280;33483;48.294;16.388;2023-01-30T11:44:27;99237.25;;;5.75;72.78
47726;BME280;33483;48.294;16.388;2023-01-30T11:46:57;99240.72;;;5.81;71.86
47726;BME280;33483;48.294;16.388;2023-01-30T11:49:25;99229.22;;;5.77;72.00
47726;BME280;33483;48.294;16.388;2023-01-30T11:52:18;99213.75;;;5.68;72.17
47726;BME280;33483;48.294;16.388;2023-01-30T11:54:49;99228.28;;;5.52;72.94
47726;BME280;33483;48.294;16.388;2023-01-30T11:57:18;99222.50;;;5.39;74.58
47726;BME280;33483;48.294;16.388;2023-01-30T11:59:46;99217.50;;;5.10;77.01
47726;BME280;33483;48.294;16.388;2023-01-30T12:02:28;99200.75;;;4.92;77.60
47726;BME280;33483;48.294;16.388;2023-01-30T12:05:02;99190.03;;;4.83;79.31
47726;BME280;33483;48.294;16.388;2023-01-30T12:07:34;99212.72;;;4.83;81.31
47726;BME280;33483;48.294;16.388;2023-01-30T12:10:16;99193.47;;;4.67;80.47
47726;BME280;33483;48.294;16.388;2023-01-30T12:12:46;99192.44;;;4.58;82.60
47726;BME280;33483;48.294;16.388;2023-01-30T12:17:51;99187.19;;;4.49;85.69
47726;BME280;33483;48.294;16.388;2023-01-30T12:25:31;99190.84;;;4.24;85.81
47726;BME280;33483;48.294;16.388;2023-01-30T12:28:02;99186.84;;;4.20;88.47
47726;BME280;33483;48.294;16.388;2023-01-30T12:33:15;99185.06;;;4.17;90.81
47726;BME280;33483;48.294;16.388;2023-01-30T12:35:48;99180.06;;;4.15;92.94
47726;BME280;33483;48.294;16.388;2023-01-30T12:44:06;99199.53;;;4.17;96.00
47726;BME280;33483;48.294;16.388;2023-01-30T13:02:48;99186.97;;;3.21;100.00
47726;BME280;33483;48.294;16.388;2023-01-30T13:05:33;99203.66;;;3.23;100.00
47726;BME280;33483;48.294;16.388;2023-01-30T13:13:36;99200.19;;;3.22;100.00
47726;BME280;33483;48.294;16.388;2023-01-30T13:16:21;99201.50;;;3.32;100.00
47726;BME280;33483;48.294;16.388;2023-01-30T13:18:55;99190.59;;;3.38;100.00
47726;BME280;33483;48.294;16.388;2023-01-30T13:24:03;99192.97;;;3.25;100.00
47726;BME280;33483;48.294;16.388;2023-01-30T13:26:36;99181.47;;;3.15;100.00
47726;BME280;33483;48.294;16.388;2023-01-30T13:31:44;99182.03;;;2.94;100.00
47726;BME280;33483;48.294;16.388;2023-01-30T13:37:01;99177.56;;;2.96;100.00
47726;BME280;33483;48.294;16.388;2023-01-30T13:40:42;99170.53;;;2.90;100.00
47726;BME280;33483;48.294;16.388;2023-01-30T13:43:14;99170.00;;;2.86;100.00
47726;BME280;33483;48.294;16.388;2023-01-30T13:45:44;99173.69;;;2.83;100.00
47726;BME280;33483;48.294;16.388;2023-01-30T14:00:59;99155.09;;;2.61;100.00
47726;BME280;33483;48.294;16.388;2023-01-30T14:03:32;99162.00;;;2.57;100.00
47726;BME280;33483;48.294;16.388;2023-01-30T14:06:03;99162.56;;;2.61;100.00
47726;BME280;33483;48.294;16.388;2023-01-30T14:10:59;99158.06;;;2.58;100.00
47726;BME280;33483;48.294;16.388;2023-01-30T14:13:26;99173.06;;;2.68;100.00
47726;BME280;33483;48.294;16.388;2023-01-30T14:15:56;99162.91;;;2.74;100.00
47726;BME280;33483;48.294;16.388;2023-01-30T14:20:52;99147.84;;;2.84;100.00
47726;BME280;33483;48.294;16.388;2023-01-30T14:23:37;99164.34;;;2.95;100.00
47726;BME280;33483;48.294;16.388;2023-01-30T14:26:08;99146.28;;;3.03;100.00
47726;BME280;33483;48.294;16.388;2023-01-30T14:31:03;99169.81;;;3.20;100.00
47726;BME280;33483;48.294;16.388;2023-01-30T14:33:32;99173.81;;;3.25;100.00
47726;BME280;33483;48.294;16.388;2023-01-30T14:45:59;99183.84;;;3.33;100.00
47726;BME280;33483;48.294;16.388;2023-01-30T14:53:50;99215.47;;;3.34;100.00
47726;BME280;33483;48.294;16.388;2023-01-30T14:56:18;99217.50;;;3.39;100.00
47726;BME280;33483;48.294;16.388;2023-01-30T14:58:49;99211.22;;;3.33;100.00
47726;BME280;33483;48.294;16.388;2023-01-30T15:01:19;99210.72;;;3.29;100.00
47726;BME280;33483;48.294;16.388;2023-01-30T15:03:47;99214.84;;;3.19;100.00
47726;BME280;33483;48.294;16.388;2023-01-30T15:06:14;99214.06;;;3.13;100.00
47726;BME280;33483;48.294;16.388;2023-01-30T15:08:42;99215.75;;;3.11;100.00
47726;BME280;33483;48.294;16.388;2023-01-30T15:11:23;99218.44;;;3.05;100.00
47726;BME280;33483;48.294;16.388;2023-01-30T15:22:12;99215.69;;;3.00;100.00
47726;BME280;33483;48.294;16.388;2023-01-30T15:27:26;99225.66;;;3.03;100.00
47726;BME280;33483;48.294;16.388;2023-01-30T15:32:25;99221.38;;;2.96;100.00
47726;BME280;33483;48.294;16.388;2023-01-30T15:34:59;99222.81;;;2.92;100.00
47726;BME280;33483;48.294;16.388;2023-01-30T15:37:30;99227.50;;;2.86;100.00
47726;BME280;33483;48.294;16.388;2023-01-30T15:50:26;99246.66;;;2.91;100.00
47726;BME280;33483;48.294;16.388;2023-01-30T15:52:53;99261.13;;;2.92;100.00
47726;BME280;33483;48.294;16.388;2023-01-30T15:55:23;99264.63;;;2.92;100.00